Time;durP1;ratioP1;P1;durP2;ratioP2;P2;SDS_P1;SDS_P2;PMS_P1;PMS_P2;Temp;Humidity;BMP_temperature;BMP_pressure;BME280_temperature;BME280_humidity;BME280_pressure;Samples;Min_cycle;Max_cycle;Signal;HPM_P1;HPM_P2
2021/05/08 00:01:51;;;;;;;5.95;3.92;;;3.80;92.40;;;;;;5068095;28;20043;-68
2021/05/08 00:04:18;;;;;;;3.78;3.40;;;3.80;92.40;;;;;;5082053;28;20562;-68
2021/05/08 00:06:45;;;;;;;4.75;3.75;;;3.70;92.30;;;;;;5075058;28;20044;-68
2021/05/08 00:09:12;;;;;;;4.50;3.45;;;3.70;92.40;;;;;;5086764;28;20040;-68
2021/05/08 00:11:38;;;;;;;5.57;3.55;;;3.70;92.40;;;;;;5091037;28;20102;-68
2021/05/08 00:14:04;;;;;;;5.22;3.40;;;3.70;92.50;;;;;;5080018;28;20112;-68
2021/05/08 00:16:31;;;;;;;6.93;3.20;;;3.70;92.40;;;;;;5072941;28;20038;-68
2021/05/08 00:18:57;;;;;;;5.53;3.30;;;3.70;92.30;;;;;;5074097;28;20063;-68
2021/05/08 00:21:23;;;;;;;4.78;3.30;;;3.60;92.30;;;;;;5069714;28;20044;-68
2021/05/08 00:23:48;;;;;;;4.97;3.60;;;3.60;92.20;;;;;;5080250;28;20033;-68
2021/05/08 00:26:14;;;;;;;7.13;3.30;;;3.60;92.10;;;;;;5070145;28;20040;-68
2021/05/08 00:28:40;;;;;;;4.75;3.33;;;3.60;92.20;;;;;;5081288;28;20116;-68
2021/05/08 00:31:06;;;;;;;4.93;3.50;;;3.50;92.30;;;;;;5080422;28;20036;-68
2021/05/08 00:33:33;;;;;;;4.93;3.58;;;3.60;92.30;;;;;;5089493;28;20093;-68
2021/05/08 00:35:59;;;;;;;4.68;3.20;;;3.50;92.50;;;;;;5052818;28;20052;-68
2021/05/08 00:38:24;;;;;;;3.95;3.55;;;3.40;92.50;;;;;;5088608;28;20044;-68
2021/05/08 00:40:50;;;;;;;5.50;3.50;;;3.40;92.40;;;;;;5051769;28;20051;-68
2021/05/08 00:43:16;;;;;;;5.45;3.75;;;3.40;92.70;;;;;;5069926;28;20458;-68
2021/05/08 00:45:42;;;;;;;4.25;3.30;;;3.40;92.50;;;;;;5080614;28;20023;-68
2021/05/08 00:48:13;;;;;;;3.47;3.17;;;3.40;92.70;;;;;;5082622;28;20047;-68
2021/05/08 00:50:39;;;;;;;4.10;3.70;;;3.30;92.50;;;;;;5072769;28;20086;-68
2021/05/08 00:53:07;;;;;;;4.68;3.85;;;3.30;92.30;;;;;;5090400;28;20601;-68
2021/05/08 00:55:34;;;;;;;4.20;3.90;;;3.30;92.50;;;;;;5078147;28;20032;-68
2021/05/08 00:58:03;;;;;;;4.63;3.60;;;3.30;92.60;;;;;;5087316;28;20663;-68
2021/05/08 01:00:29;;;;;;;7.70;3.75;;;3.30;92.60;;;;;;5084365;28;20048;-68
2021/05/08 01:02:55;;;;;;;4.30;3.50;;;3.30;92.50;;;;;;5080773;28;20372;-68
2021/05/08 01:05:21;;;;;;;4.00;3.47;;;3.30;92.70;;;;;;5076718;28;20024;-68
2021/05/08 01:07:47;;;;;;;4.82;4.38;;;3.30;92.40;;;;;;5080728;28;20040;-68
2021/05/08 01:10:15;;;;;;;6.32;4.15;;;3.30;92.50;;;;;;5069627;28;20032;-69
2021/05/08 01:12:42;;;;;;;4.43;4.03;;;3.30;92.90;;;;;;5069764;28;20025;-68
2021/05/08 01:15:10;;;;;;;5.35;4.10;;;3.30;92.70;;;;;;5070864;28;20137;-68
2021/05/08 01:17:37;;;;;;;6.95;4.68;;;3.20;92.70;;;;;;5082265;28;20530;-68
2021/05/08 01:20:06;;;;;;;4.60;4.20;;;3.10;93.10;;;;;;5067721;28;20111;-68
2021/05/08 01:22:32;;;;;;;5.07;4.00;;;3.10;92.80;;;;;;5078584;28;20441;-68
2021/05/08 01:24:58;;;;;;;4.38;4.00;;;3.10;92.70;;;;;;5051813;28;20063;-68
2021/05/08 01:27:23;;;;;;;6.65;4.18;;;3.10;92.70;;;;;;5080357;28;20471;-68
2021/05/08 01:29:49;;;;;;;4.82;4.18;;;3.10;92.80;;;;;;5083216;28;20406;-68
2021/05/08 01:32:15;;;;;;;6.22;4.40;;;3.00;92.70;;;;;;5071858;28;20391;-68
2021/05/08 01:34:41;;;;;;;6.68;4.25;;;3.00;92.60;;;;;;5059112;23;20049;-68
2021/05/08 01:37:06;;;;;;;5.88;4.45;;;3.00;92.60;;;;;;5027480;28;20387;-68
2021/05/08 01:39:32;;;;;;;6.20;4.40;;;3.00;92.70;;;;;;5029860;28;20503;-68
2021/05/08 01:41:57;;;;;;;5.20;4.43;;;3.00;92.70;;;;;;5027926;28;20043;-68
2021/05/08 01:44:24;;;;;;;8.05;4.75;;;3.00;92.70;;;;;;5027688;28;20037;-68
2021/05/08 01:46:50;;;;;;;4.88;4.40;;;3.00;92.70;;;;;;5029664;28;20120;-68
2021/05/08 01:49:15;;;;;;;6.47;4.35;;;2.90;92.90;;;;;;5028266;28;20533;-68
2021/05/08 01:51:41;;;;;;;4.13;3.72;;;2.90;93.00;;;;;;5028970;28;20041;-68
2021/05/08 01:54:07;;;;;;;5.03;4.38;;;2.90;92.70;;;;;;5027816;28;20049;-68
2021/05/08 01:56:32;;;;;;;6.43;5.00;;;2.90;92.90;;;;;;5011176;28;20084;-68
2021/05/08 01:58:59;;;;;;;6.75;4.60;;;2.80;93.30;;;;;;5031629;28;20056;-68
2021/05/08 02:01:24;;;;;;;4.82;4.35;;;2.80;93.10;;;;;;5031089;28;20037;-68
2021/05/08 02:03:51;;;;;;;4.78;4.28;;;2.80;93.10;;;;;;5034484;28;20069;-68
2021/05/08 02:06:17;;;;;;;5.35;4.43;;;2.80;93.10;;;;;;5016646;28;20068;-68
2021/05/08 02:08:42;;;;;;;4.53;4.13;;;2.80;93.10;;;;;;5032444;28;20736;-68
2021/05/08 02:11:08;;;;;;;5.20;4.30;;;2.80;93.10;;;;;;5014229;28;20061;-68
2021/05/08 02:13:33;;;;;;;5.32;4.10;;;2.80;93.00;;;;;;5033162;28;20439;-68
2021/05/08 02:15:59;;;;;;;5.35;3.78;;;2.80;92.80;;;;;;5032045;28;20046;-68
2021/05/08 02:18:24;;;;;;;4.82;4.43;;;2.80;92.90;;;;;;5032318;28;20091;-68
2021/05/08 02:20:50;;;;;;;5.15;4.13;;;2.80;93.00;;;;;;5031273;28;20104;-68
2021/05/08 02:23:17;;;;;;;5.80;4.78;;;2.80;92.90;;;;;;5031275;28;20041;-68
2021/05/08 02:25:43;;;;;;;5.75;5.25;;;2.80;92.90;;;;;;5030351;28;20045;-68
2021/05/08 02:28:10;;;;;;;6.78;4.95;;;2.80;93.10;;;;;;5031973;28;20524;-68
2021/05/08 02:30:40;;;;;;;6.50;4.90;;;2.80;93.60;;;;;;5030425;28;20091;-68
2021/05/08 02:33:06;;;;;;;6.65;4.80;;;2.80;93.20;;;;;;5032033;28;20053;-68
2021/05/08 02:35:33;;;;;;;5.30;4.80;;;2.70;92.70;;;;;;5029101;28;20049;-68
2021/05/08 02:37:59;;;;;;;5.63;4.88;;;2.80;93.00;;;;;;5014868;28;20046;-68
2021/05/08 02:40:27;;;;;;;6.50;5.00;;;2.70;93.10;;;;;;5031499;28;20048;-68
2021/05/08 02:42:54;;;;;;;7.05;5.22;;;2.70;93.10;;;;;;5031758;28;20388;-68
2021/05/08 02:45:20;;;;;;;7.47;5.40;;;2.70;93.40;;;;;;5029721;28;20116;-68
2021/05/08 02:47:47;;;;;;;6.32;5.30;;;2.70;93.60;;;;;;5030926;28;20457;-68
2021/05/08 02:50:16;;;;;;;7.80;5.38;;;2.70;93.80;;;;;;5031394;28;20059;-68
2021/05/08 02:52:42;;;;;;;6.13;5.00;;;2.70;93.80;;;;;;5013816;28;20041;-68
2021/05/08 02:55:09;;;;;;;7.07;5.00;;;2.70;93.70;;;;;;5032124;28;20065;-68
2021/05/08 02:57:35;;;;;;;6.18;4.80;;;2.70;93.60;;;;;;5031403;28;20080;-68
2021/05/08 03:00:07;;;;;;;5.07;4.68;;;2.70;93.60;;;;;;5028069;28;20045;-68
2021/05/08 03:02:33;;;;;;;7.20;4.88;;;2.70;93.30;;;;;;5029830;28;20452;-68
2021/05/08 03:04:58;;;;;;;5.38;4.88;;;2.70;93.20;;;;;;5032029;28;20037;-68
2021/05/08 03:07:24;;;;;;;7.25;4.95;;;2.70;93.30;;;;;;5012597;28;20076;-68
2021/05/08 03:09:50;;;;;;;5.95;4.97;;;2.70;93.20;;;;;;5031015;28;20077;-68
2021/05/08 03:12:16;;;;;;;5.82;5.10;;;2.70;93.10;;;;;;5031236;28;20092;-68
2021/05/08 03:14:41;;;;;;;8.85;5.82;;;2.70;93.20;;;;;;5031195;28;20037;-68
2021/05/08 03:17:07;;;;;;;6.88;5.53;;;2.60;93.60;;;;;;5030439;28;20714;-68
2021/05/08 03:19:32;;;;;;;6.38;5.78;;;2.60;93.90;;;;;;5031815;28;20072;-68
2021/05/08 03:21:58;;;;;;;5.93;5.43;;;2.60;93.80;;;;;;5031308;28;20116;-68
2021/05/08 03:24:24;;;;;;;7.32;5.55;;;2.60;93.40;;;;;;5030752;28;20069;-68
2021/05/08 03:26:49;;;;;;;6.40;5.80;;;2.60;93.30;;;;;;5031233;28;20087;-68
2021/05/08 03:29:15;;;;;;;5.90;5.35;;;2.60;93.40;;;;;;5031311;28;20447;-68
2021/05/08 03:31:41;;;;;;;5.97;5.45;;;2.60;93.60;;;;;;5011766;28;20125;-68
2021/05/08 03:34:07;;;;;;;8.00;5.65;;;2.50;93.20;;;;;;5030577;28;20045;-68
2021/05/08 03:36:34;;;;;;;10.90;7.38;;;2.60;93.10;;;;;;5025728;28;20025;-68
2021/05/08 03:39:00;;;;;;;8.43;7.18;;;2.50;94.00;;;;;;5030436;28;20451;-68
2021/05/08 03:41:26;;;;;;;8.48;7.53;;;2.50;94.20;;;;;;5029094;28;20072;-68
2021/05/08 03:43:51;;;;;;;7.10;6.43;;;2.50;94.40;;;;;;5025789;28;20491;-68
2021/05/08 03:46:17;;;;;;;6.38;5.88;;;2.50;94.20;;;;;;5030309;28;20029;-68
2021/05/08 03:48:42;;;;;;;6.85;6.15;;;2.40;93.70;;;;;;5031093;28;20037;-68
2021/05/08 03:51:08;;;;;;;7.63;6.88;;;2.50;93.70;;;;;;5027658;28;20057;-68
2021/05/08 03:53:34;;;;;;;6.80;6.20;;;2.50;93.80;;;;;;5011852;28;20120;-68
2021/05/08 03:56:01;;;;;;;8.60;6.40;;;2.40;93.60;;;;;;5028718;28;20041;-68
2021/05/08 03:58:29;;;;;;;7.53;6.80;;;2.50;93.40;;;;;;5030287;28;20111;-68
2021/05/08 04:00:55;;;;;;;9.23;8.25;;;2.50;93.50;;;;;;5027692;28;20099;-68
2021/05/08 04:03:22;;;;;;;13.82;8.82;;;2.50;94.10;;;;;;5029468;28;20112;-68
2021/05/08 04:05:48;;;;;;;8.35;7.53;;;2.50;94.70;;;;;;5047312;28;20579;-68
2021/05/08 04:08:14;;;;;;;8.90;8.00;;;2.50;94.10;;;;;;5031873;28;20037;-68
2021/05/08 04:10:40;;;;;;;8.18;7.10;;;2.60;94.10;;;;;;5029383;28;20107;-68
2021/05/08 04:13:06;;;;;;;8.82;7.93;;;2.60;94.20;;;;;;5010348;28;20449;-68
2021/05/08 04:15:32;;;;;;;8.25;7.40;;;2.60;94.00;;;;;;5030792;28;20100;-68
2021/05/08 04:17:59;;;;;;;9.07;7.85;;;2.70;93.90;;;;;;5029794;28;20114;-68
2021/05/08 04:20:25;;;;;;;10.55;9.15;;;2.70;93.80;;;;;;5031848;28;20045;-68
2021/05/08 04:22:51;;;;;;;10.75;9.25;;;2.70;94.50;;;;;;5029644;28;20107;-68
2021/05/08 04:25:17;;;;;;;9.82;8.73;;;2.80;94.40;;;;;;5011849;28;20298;-68
2021/05/08 04:27:43;;;;;;;9.45;8.45;;;2.80;94.50;;;;;;5029932;28;20072;-68
2021/05/08 04:30:09;;;;;;;10.05;7.97;;;2.80;94.20;;;;;;5028582;28;20038;-68
2021/05/08 04:32:35;;;;;;;9.10;7.35;;;2.90;93.70;;;;;;5027891;28;20133;-68
2021/05/08 04:35:01;;;;;;;9.32;7.95;;;2.90;93.40;;;;;;5030072;28;20049;-68
2021/05/08 04:37:34;;;;;;;9.18;8.27;;;2.90;93.30;;;;;;5029363;28;20033;-68
2021/05/08 04:40:04;;;;;;;9.85;8.38;;;3.00;93.50;;;;;;5027942;28;20049;-68
2021/05/08 04:42:30;;;;;;;9.65;8.65;;;3.10;93.30;;;;;;5027066;28;20037;-68
2021/05/08 04:44:56;;;;;;;9.93;8.80;;;3.10;93.30;;;;;;5028999;28;20041;-68
2021/05/08 04:47:21;;;;;;;9.75;8.75;;;3.10;93.40;;;;;;5028531;28;20041;-68
2021/05/08 04:49:48;;;;;;;10.27;9.00;;;3.30;93.80;;;;;;5027700;28;20044;-68
2021/05/08 04:52:14;;;;;;;9.43;8.52;;;3.40;94.00;;;;;;5011725;28;20567;-68
2021/05/08 04:54:40;;;;;;;10.25;9.25;;;3.60;93.70;;;;;;5028548;28;20044;-68
2021/05/08 04:57:05;;;;;;;12.88;9.23;;;3.80;93.60;;;;;;5030157;28;20122;-68
2021/05/08 04:59:31;;;;;;;10.80;9.50;;;4.00;93.50;;;;;;5027449;28;20045;-68
2021/05/08 05:02:01;;;;;;;11.82;9.02;;;4.10;93.30;;;;;;5029276;28;20052;-68
2021/05/08 05:04:29;;;;;;;10.70;9.75;;;4.30;93.10;;;;;;5028940;28;20041;-68
2021/05/08 05:06:55;;;;;;;10.38;8.65;;;4.40;92.60;;;;;;5029196;28;20432;-68
2021/05/08 05:09:20;;;;;;;9.85;8.18;;;4.60;92.70;;;;;;5029160;28;20121;-68
2021/05/08 05:11:46;;;;;;;13.68;8.82;;;4.70;92.50;;;;;;5028059;28;20065;-68
2021/05/08 05:14:22;;;;;;;8.50;7.70;;;4.80;92.30;;;;;;5029437;28;20037;-68
2021/05/08 05:16:47;;;;;;;16.85;9.52;;;4.90;92.10;;;;;;5027178;28;20079;-69
2021/05/08 05:19:14;;;;;;;12.13;9.38;;;4.90;92.00;;;;;;5030038;28;20049;-69
2021/05/08 05:21:41;;;;;;;14.73;9.82;;;4.90;91.80;;;;;;5028952;28;20120;-68
2021/05/08 05:24:08;;;;;;;10.38;9.10;;;4.90;92.00;;;;;;5028261;28;20129;-68
2021/05/08 05:26:35;;;;;;;11.13;9.98;;;5.00;92.00;;;;;;5028572;28;20104;-68
2021/05/08 05:29:03;;;;;;;10.70;9.68;;;5.00;91.90;;;;;;5028834;28;20037;-68
2021/05/08 05:31:30;;;;;;;11.25;9.90;;;5.10;91.90;;;;;;5027944;28;20542;-68
2021/05/08 05:33:55;;;;;;;10.75;9.48;;;5.20;91.90;;;;;;5033935;28;20413;-68
2021/05/08 05:36:21;;;;;;;11.20;9.55;;;5.30;91.70;;;;;;5031603;28;20047;-68
2021/05/08 05:38:47;;;;;;;11.35;10.18;;;5.40;91.60;;;;;;5033785;28;20112;-68
2021/05/08 05:41:13;;;;;;;11.07;9.65;;;5.40;91.50;;;;;;5030002;28;20120;-68
2021/05/08 05:43:38;;;;;;;11.93;10.23;;;5.50;91.40;;;;;;5032047;28;20091;-68
2021/05/08 05:46:04;;;;;;;11.25;10.05;;;5.60;91.10;;;;;;5033354;28;20033;-68
2021/05/08 05:48:30;;;;;;;11.23;9.68;;;5.80;91.40;;;;;;5031147;28;20068;-68
2021/05/08 05:50:55;;;;;;;9.98;8.98;;;6.90;91.10;;;;;;5032219;28;20452;-68
2021/05/08 05:53:21;;;;;;;10.02;9.13;;;8.50;88.50;;;;;;5032726;28;20029;-68
2021/05/08 05:55:47;;;;;;;10.05;8.80;;;9.90;84.40;;;;;;5029204;28;20041;-68
2021/05/08 05:58:12;;;;;;;9.90;8.02;;;10.90;80.60;;;;;;5032604;28;20455;-68
2021/05/08 06:00:38;;;;;;;9.18;7.97;;;12.10;78.00;;;;;;5043448;28;20396;-68
2021/05/08 06:03:05;;;;;;;8.65;7.85;;;13.00;75.80;;;;;;5036640;28;20048;-68
2021/05/08 06:05:30;;;;;;;8.07;7.13;;;13.70;71.80;;;;;;5032734;28;20041;-68
2021/05/08 06:07:56;;;;;;;7.65;6.55;;;14.20;69.60;;;;;;5032306;28;20048;-68
2021/05/08 06:10:22;;;;;;;8.23;6.80;;;14.60;67.70;;;;;;5017758;28;20030;-68
2021/05/08 06:12:47;;;;;;;7.47;6.78;;;15.00;65.10;;;;;;5014044;28;20111;-68
2021/05/08 06:15:13;;;;;;;8.93;7.07;;;15.60;63.80;;;;;;5030625;28;20037;-68
2021/05/08 06:17:39;;;;;;;7.78;6.80;;;16.10;61.60;;;;;;5025721;28;20542;-68
2021/05/08 06:20:06;;;;;;;6.80;5.97;;;16.60;61.20;;;;;;5032024;28;20112;-68
2021/05/08 06:22:32;;;;;;;7.55;6.85;;;16.90;58.80;;;;;;5032286;28;20388;-69
2021/05/08 06:24:58;;;;;;;7.15;6.55;;;17.30;56.80;;;;;;5031351;28;20048;-69
2021/05/08 06:27:24;;;;;;;7.50;6.78;;;17.50;53.40;;;;;;5030250;28;20034;-69
2021/05/08 06:29:50;;;;;;;7.22;6.43;;;17.70;52.60;;;;;;5014258;28;20055;-69
2021/05/08 06:32:16;;;;;;;8.07;7.28;;;17.80;54.10;;;;;;5031115;28;20759;-69
2021/05/08 06:34:42;;;;;;;7.57;6.88;;;18.10;52.50;;;;;;5031556;28;20049;-68
2021/05/08 06:37:07;;;;;;;9.55;6.80;;;18.30;52.70;;;;;;5013420;28;20076;-68
2021/05/08 06:39:34;;;;;;;7.57;6.88;;;18.40;51.10;;;;;;5031076;28;20044;-68
2021/05/08 06:41:59;;;;;;;6.93;6.15;;;18.60;50.70;;;;;;5031600;28;20041;-68
2021/05/08 06:44:25;;;;;;;8.68;6.78;;;18.80;50.00;;;;;;5028363;28;20151;-68
2021/05/08 06:47:00;;;;;;;7.75;6.95;;;18.90;49.70;;;;;;5023810;28;20492;-69
2021/05/08 06:49:26;;;;;;;8.30;6.95;;;18.90;47.30;;;;;;5028433;28;20116;-68
2021/05/08 06:51:51;;;;;;;8.32;7.05;;;18.90;47.10;;;;;;5026174;28;20571;-69
2021/05/08 06:54:17;;;;;;;7.60;6.80;;;18.80;46.90;;;;;;5002854;28;20029;-70
2021/05/08 06:56:43;;;;;;;9.55;7.63;;;18.80;46.80;;;;;;5032027;28;20041;-69
2021/05/08 06:59:09;;;;;;;7.72;7.00;;;18.80;45.80;;;;;;5031942;28;20052;-69
2021/05/08 07:01:35;;;;;;;8.60;7.80;;;18.60;46.80;;;;;;5026015;28;20502;-69
2021/05/08 07:04:02;;;;;;;8.20;7.32;;;18.20;47.60;;;;;;5011361;28;20504;-69
2021/05/08 07:06:28;;;;;;;9.57;7.63;;;18.00;47.80;;;;;;5030041;28;20472;-69
2021/05/08 07:08:54;;;;;;;8.45;7.72;;;17.70;49.10;;;;;;5028382;28;20076;-69
2021/05/08 07:11:21;;;;;;;9.68;7.65;;;17.60;48.30;;;;;;5029595;28;20516;-69
2021/05/08 07:13:47;;;;;;;8.43;7.47;;;17.80;48.70;;;;;;5029832;28;20034;-69
2021/05/08 07:16:13;;;;;;;7.18;6.63;;;17.70;48.30;;;;;;5029920;28;20076;-69
2021/05/08 07:18:39;;;;;;;8.23;7.20;;;17.80;48.90;;;;;;5028621;28;20404;-69
2021/05/08 07:21:06;;;;;;;7.90;7.10;;;17.90;48.80;;;;;;5030661;28;20061;-69
2021/05/08 07:23:31;;;;;;;7.03;6.32;;;17.80;47.70;;;;;;5028188;28;20151;-69
2021/05/08 07:25:57;;;;;;;8.07;7.18;;;17.70;47.90;;;;;;5026717;28;20064;-69
2021/05/08 07:28:24;;;;;;;8.43;6.15;;;17.50;48.60;;;;;;5031624;28;20112;-69
2021/05/08 07:30:52;;;;;;;7.25;6.50;;;17.40;49.10;;;;;;5030156;28;20038;-69
2021/05/08 07:33:19;;;;;;;6.93;6.25;;;17.30;49.00;;;;;;5030558;28;20504;-69
2021/05/08 07:35:46;;;;;;;7.10;6.28;;;17.10;48.50;;;;;;5065301;23;20080;-67
2021/05/08 07:38:12;;;;;;;7.38;5.75;;;17.10;48.30;;;;;;5069207;28;20415;-67
2021/05/08 07:40:39;;;;;;;6.05;5.45;;;17.10;47.80;;;;;;5069972;28;20033;-67
2021/05/08 07:43:05;;;;;;;5.95;5.45;;;17.20;48.40;;;;;;5070432;28;20036;-67
2021/05/08 07:45:34;;;;;;;6.97;5.85;;;17.50;47.10;;;;;;5067415;28;20032;-67
2021/05/08 07:48:00;;;;;;;6.50;5.72;;;17.50;46.90;;;;;;5060799;28;20036;-67
2021/05/08 07:50:28;;;;;;;6.88;6.18;;;17.40;47.30;;;;;;5068935;28;20040;-67
2021/05/08 07:52:55;;;;;;;5.70;5.07;;;17.30;47.40;;;;;;5066531;28;20391;-67
2021/05/08 07:55:21;;;;;;;5.82;5.32;;;17.30;47.00;;;;;;5067221;28;20028;-67
2021/05/08 07:57:47;;;;;;;8.57;5.90;;;17.10;47.80;;;;;;5051042;28;20041;-67
2021/05/08 08:00:18;;;;;;;6.57;5.68;;;16.70;47.30;;;;;;5070286;28;20040;-67
2021/05/08 08:03:04;;;;;;;7.32;5.70;;;16.40;48.80;;;;;;5054783;28;20426;-67
2021/05/08 08:05:30;;;;;;;5.78;4.93;;;16.20;49.30;;;;;;5070317;28;20373;-67
2021/05/08 08:07:56;;;;;;;5.47;4.97;;;16.00;49.20;;;;;;5070502;28;20044;-67
2021/05/08 08:10:22;;;;;;;9.05;5.47;;;15.90;49.70;;;;;;5070510;28;20040;-67
2021/05/08 08:12:49;;;;;;;6.22;5.43;;;15.80;51.00;;;;;;5068697;28;20123;-67
2021/05/08 08:15:16;;;;;;;5.68;5.03;;;15.70;50.30;;;;;;5052659;28;20041;-67
2021/05/08 08:17:42;;;;;;;5.40;4.90;;;15.80;49.70;;;;;;5070256;28;20039;-67
2021/05/08 08:20:10;;;;;;;6.10;4.88;;;15.70;49.70;;;;;;5052085;28;20044;-67
2021/05/08 08:22:37;;;;;;;8.40;5.95;;;15.60;50.00;;;;;;5070596;28;20040;-67
2021/05/08 08:25:04;;;;;;;5.45;4.95;;;15.50;50.40;;;;;;5070389;28;20040;-67
2021/05/08 08:27:30;;;;;;;6.75;5.90;;;15.40;50.60;;;;;;5070514;28;20040;-67
2021/05/08 08:29:56;;;;;;;6.30;4.90;;;15.20;51.50;;;;;;5066781;28;20043;-67
2021/05/08 08:32:22;;;;;;;5.90;5.28;;;15.20;51.50;;;;;;5069692;28;20036;-67
2021/05/08 08:34:47;;;;;;;6.32;5.13;;;15.10;52.30;;;;;;5070005;28;20048;-67
2021/05/08 08:37:13;;;;;;;8.70;5.82;;;15.00;52.60;;;;;;5070018;28;20044;-67
2021/05/08 08:39:39;;;;;;;6.15;5.55;;;15.00;53.20;;;;;;5069228;28;20426;-67
2021/05/08 08:42:07;;;;;;;5.25;4.75;;;15.10;53.00;;;;;;5066270;28;20101;-67
2021/05/08 08:44:34;;;;;;;7.28;5.60;;;15.10;52.10;;;;;;5067370;28;20060;-66
2021/05/08 08:46:59;;;;;;;6.22;5.43;;;15.20;51.40;;;;;;5068774;28;20389;-67
2021/05/08 08:49:26;;;;;;;6.22;5.15;;;15.20;51.80;;;;;;5066257;28;20464;-66
2021/05/08 08:51:51;;;;;;;6.25;5.28;;;15.10;51.90;;;;;;5066303;28;20036;-67
2021/05/08 08:54:17;;;;;;;5.97;4.68;;;15.10;51.90;;;;;;5063231;28;20029;-66
2021/05/08 08:56:47;;;;;;;5.20;4.70;;;15.20;51.50;;;;;;5068160;28;20372;-66
2021/05/08 08:59:35;;;;;;;9.05;5.25;;;15.30;51.10;;;;;;5068030;28;20507;-66
2021/05/08 09:02:00;;;;;;;7.38;4.38;;;15.20;51.10;;;;;;5069145;28;20064;-66
2021/05/08 09:04:26;;;;;;;5.68;5.10;;;15.30;50.60;;;;;;5069356;28;20051;-66
2021/05/08 09:06:54;;;;;;;7.15;5.20;;;15.30;50.60;;;;;;5069650;28;20446;-66
2021/05/08 09:09:20;;;;;;;8.05;5.13;;;15.40;50.20;;;;;;5068914;28;20094;-66
2021/05/08 09:11:54;;;;;;;6.72;5.35;;;15.40;48.20;;;;;;5069583;28;20040;-66
2021/05/08 09:14:23;;;;;;;6.15;5.55;;;15.50;49.40;;;;;;5067817;28;20032;-67
2021/05/08 09:17:07;;;;;;;9.30;5.50;;;15.60;49.60;;;;;;5051479;28;20033;-66
2021/05/08 09:19:38;;;;;;;7.40;5.93;;;15.70;49.50;;;;;;5070241;28;20067;-66
2021/05/08 09:22:28;;;;;;;7.40;5.82;;;15.80;49.00;;;;;;5069622;28;20163;-67
2021/05/08 09:25:07;;;;;;;8.07;6.40;;;15.80;49.40;;;;;;5070052;28;20052;-66
2021/05/08 09:27:36;;;;;;;9.93;6.18;;;15.80;49.50;;;;;;5069315;28;20040;-66
2021/05/08 09:30:07;;;;;;;9.95;6.78;;;15.80;48.30;;;;;;5067933;28;20134;-66
2021/05/08 09:32:45;;;;;;;9.55;6.72;;;15.90;48.90;;;;;;5065403;28;20090;-66
2021/05/08 09:35:17;;;;;;;7.82;6.70;;;15.90;47.00;;;;;;5069355;28;20059;-66
2021/05/08 09:37:43;;;;;;;8.50;6.60;;;15.90;48.20;;;;;;5066326;28;20114;-67
2021/05/08 09:40:23;;;;;;;10.40;6.97;;;15.90;47.90;;;;;;5065396;28;20483;-66
2021/05/08 09:42:54;;;;;;;9.25;7.07;;;15.80;48.20;;;;;;5045165;28;20036;-66
2021/05/08 09:45:21;;;;;;;8.10;7.18;;;16.00;48.60;;;;;;5076505;28;20040;-67
2021/05/08 09:47:47;;;;;;;10.00;7.20;;;15.90;47.10;;;;;;5072192;28;20052;-66
2021/05/08 09:50:14;;;;;;;8.95;7.72;;;15.90;48.20;;;;;;5069228;28;20391;-66
2021/05/08 09:52:47;;;;;;;8.27;7.05;;;15.90;48.00;;;;;;5067159;28;20036;-66
2021/05/08 09:55:14;;;;;;;8.20;7.07;;;15.90;49.10;;;;;;5067791;28;20495;-66
2021/05/08 09:57:40;;;;;;;10.35;7.40;;;15.90;49.10;;;;;;5068333;28;20064;-66
2021/05/08 10:00:39;;;;;;;11.48;8.02;;;15.70;48.10;;;;;;5069588;28;20036;-67
2021/05/08 10:03:07;;;;;;;9.85;8.52;;;15.80;48.80;;;;;;5067224;28;20028;-66
2021/05/08 10:05:33;;;;;;;9.07;7.95;;;15.80;48.80;;;;;;5067766;28;20037;-66
2021/05/08 10:08:00;;;;;;;10.18;7.80;;;15.80;49.50;;;;;;5067089;28;20118;-66
2021/05/08 10:10:26;;;;;;;10.00;7.82;;;15.80;48.90;;;;;;5065397;28;20558;-67
2021/05/08 10:12:52;;;;;;;11.98;8.55;;;15.80;49.10;;;;;;5067344;28;20036;-66
2021/05/08 10:15:18;;;;;;;9.70;8.48;;;15.80;48.60;;;;;;5066990;28;20051;-66
2021/05/08 10:17:48;;;;;;;9.82;8.48;;;15.70;49.40;;;;;;5069539;28;20033;-66
2021/05/08 10:20:15;;;;;;;14.77;8.88;;;15.70;49.70;;;;;;5064148;28;20036;-66
2021/05/08 10:22:46;;;;;;;10.70;8.93;;;15.60;50.30;;;;;;5066070;28;20036;-66
2021/05/08 10:25:12;;;;;;;10.77;9.32;;;15.70;49.40;;;;;;5057648;28;20536;-66
2021/05/08 10:27:38;;;;;;;9.65;8.65;;;15.70;50.00;;;;;;5068824;28;20041;-66
2021/05/08 10:30:08;;;;;;;10.07;8.55;;;15.70;49.70;;;;;;5049355;28;20039;-66
2021/05/08 10:32:37;;;;;;;10.52;8.43;;;15.80;49.70;;;;;;5069234;28;20082;-66
2021/05/08 10:35:03;;;;;;;12.13;9.27;;;15.80;49.30;;;;;;5067301;28;20048;-66
2021/05/08 10:37:30;;;;;;;11.07;9.60;;;16.00;49.50;;;;;;5068466;28;20422;-66
2021/05/08 10:40:00;;;;;;;11.98;10.65;;;16.20;48.50;;;;;;5066471;28;20242;-66
2021/05/08 10:42:49;;;;;;;9.95;8.77;;;16.10;48.50;;;;;;5066962;28;20068;-66
2021/05/08 10:45:18;;;;;;;10.73;9.63;;;16.30;49.00;;;;;;5061430;28;20442;-66
2021/05/08 10:47:52;;;;;;;11.57;9.68;;;16.50;48.40;;;;;;5069769;28;20071;-66
2021/05/08 10:50:27;;;;;;;10.70;9.65;;;16.60;48.50;;;;;;5069138;28;20036;-66
2021/05/08 10:53:05;;;;;;;13.20;9.85;;;16.70;48.60;;;;;;5070169;28;20116;-66
2021/05/08 10:55:58;;;;;;;12.15;9.45;;;16.80;47.90;;;;;;5071990;28;20048;-66
2021/05/08 10:58:25;;;;;;;11.73;9.93;;;16.80;47.40;;;;;;5072100;28;20197;-66
2021/05/08 11:00:52;;;;;;;13.23;9.23;;;16.90;47.90;;;;;;5072081;28;20048;-66
2021/05/08 11:03:20;;;;;;;11.30;8.40;;;17.00;46.70;;;;;;5072189;28;20039;-66
2021/05/08 11:05:53;;;;;;;11.38;9.82;;;17.00;47.00;;;;;;5072174;28;20452;-66
2021/05/08 11:08:25;;;;;;;11.50;9.18;;;17.10;46.70;;;;;;5071858;28;20053;-66
2021/05/08 11:10:53;;;;;;;11.05;9.30;;;17.10;46.60;;;;;;5054155;28;20041;-66
2021/05/08 11:13:21;;;;;;;10.90;8.40;;;17.10;46.20;;;;;;5054313;28;20043;-66
2021/05/08 11:15:56;;;;;;;11.43;9.40;;;17.00;46.50;;;;;;5070305;28;20043;-66
2021/05/08 11:18:35;;;;;;;9.65;8.65;;;17.00;47.40;;;;;;5070210;28;20115;-66
2021/05/08 11:21:16;;;;;;;10.35;8.70;;;17.10;47.00;;;;;;5071378;28;20036;-66
2021/05/08 11:23:50;;;;;;;11.15;8.45;;;17.20;45.80;;;;;;5053438;28;20040;-66
2021/05/08 11:29:02;;;;;;;11.52;8.45;;;17.40;46.40;;;;;;5070705;28;20507;-66
2021/05/08 11:31:33;;;;;;;10.10;8.57;;;17.30;47.10;;;;;;5068663;28;20063;-66
2021/05/08 11:34:21;;;;;;;9.90;8.45;;;17.40;46.70;;;;;;5052894;28;20072;-66
2021/05/08 11:36:47;;;;;;;8.85;6.72;;;17.40;46.50;;;;;;5071585;28;20075;-66
2021/05/08 11:39:17;;;;;;;8.82;6.55;;;17.50;45.50;;;;;;5071408;28;20472;-66
2021/05/08 11:41:44;;;;;;;6.53;5.57;;;17.40;45.50;;;;;;5071443;28;20043;-66
2021/05/08 11:44:19;;;;;;;8.05;6.20;;;17.30;46.10;;;;;;5071309;28;20365;-66
2021/05/08 11:46:56;;;;;;;8.90;6.50;;;17.00;45.70;;;;;;5071266;28;20084;-66
2021/05/08 11:49:23;;;;;;;8.15;6.75;;;16.80;47.50;;;;;;5070073;28;20529;-66
2021/05/08 11:51:49;;;;;;;8.48;6.15;;;16.70;48.40;;;;;;5069230;28;20342;-66
2021/05/08 11:54:14;;;;;;;7.95;5.85;;;16.60;48.20;;;;;;5070706;28;20032;-65
2021/05/08 11:56:40;;;;;;;7.13;5.30;;;16.40;47.60;;;;;;5052925;28;20045;-66
2021/05/08 11:59:07;;;;;;;5.90;4.95;;;16.10;48.00;;;;;;5070972;28;20044;-66
2021/05/08 12:01:34;;;;;;;7.68;4.80;;;16.10;49.20;;;;;;5070325;28;20115;-66
2021/05/08 12:04:02;;;;;;;6.90;5.05;;;16.10;49.30;;;;;;5051707;28;20045;-66
2021/05/08 12:06:29;;;;;;;8.43;4.90;;;16.10;49.60;;;;;;5067269;28;20503;-66
2021/05/08 12:08:56;;;;;;;5.30;4.80;;;16.20;50.40;;;;;;5051993;28;20048;-66
2021/05/08 12:11:23;;;;;;;6.25;5.05;;;16.10;48.30;;;;;;5068343;28;20036;-67
2021/05/08 12:13:50;;;;;;;5.50;4.30;;;16.10;49.00;;;;;;5069911;28;20036;-66
2021/05/08 12:16:16;;;;;;;8.13;4.57;;;16.00;49.00;;;;;;5064650;28;20404;-66
2021/05/08 12:18:42;;;;;;;6.70;4.90;;;16.00;49.40;;;;;;5069785;28;20032;-66
2021/05/08 12:21:11;;;;;;;5.18;4.30;;;16.00;49.60;;;;;;5067883;28;20041;-66
2021/05/08 12:23:38;;;;;;;6.68;4.93;;;16.00;48.40;;;;;;5070511;28;20066;-66
2021/05/08 12:26:08;;;;;;;4.93;4.47;;;16.00;48.40;;;;;;5065960;28;20545;-66
2021/05/08 12:28:35;;;;;;;8.45;4.72;;;15.90;49.50;;;;;;5070058;28;20040;-66
2021/05/08 12:31:18;;;;;;;5.15;4.45;;;15.80;50.00;;;;;;5069016;28;20039;-66
2021/05/08 12:33:44;;;;;;;6.80;5.20;;;15.70;50.40;;;;;;5070542;28;20048;-66
2021/05/08 12:36:14;;;;;;;6.53;5.20;;;15.50;51.30;;;;;;5070078;28;20045;-66
2021/05/08 12:38:40;;;;;;;8.05;5.07;;;15.40;51.50;;;;;;5069925;28;20037;-66
2021/05/08 12:41:47;;;;;;;8.20;5.28;;;15.50;51.30;;;;;;5069508;28;20040;-65
2021/05/08 12:44:13;;;;;;;8.05;6.13;;;15.50;51.30;;;;;;5063285;28;20044;-65
2021/05/08 12:46:59;;;;;;;6.35;5.60;;;15.40;53.40;;;;;;5070565;28;20055;-65
2021/05/08 12:49:28;;;;;;;6.05;5.45;;;15.40;55.30;;;;;;5052341;28;20390;-65
2021/05/08 12:51:54;;;;;;;5.82;5.22;;;15.40;53.80;;;;;;5069993;28;20055;-65
2021/05/08 12:54:21;;;;;;;5.30;4.80;;;15.30;53.60;;;;;;5065983;28;20044;-65
2021/05/08 12:56:48;;;;;;;5.50;5.07;;;15.20;55.00;;;;;;5067490;28;20087;-65